sensor_id;sensor_type;location;lat;lon;timestamp;pressure;altitude;pressure_sealevel;temperature;humidity
18500;BME280;9379;52.134;11.576;2022-12-20T00:01:00;101087.03;;;7.61;100.00
18500;BME280;9379;52.134;11.576;2022-12-20T00:03:28;101084.09;;;7.78;100.00
18500;BME280;9379;52.134;11.576;2022-12-20T00:05:55;101089.69;;;7.74;100.00
18500;BME280;9379;52.134;11.576;2022-12-20T00:08:22;101073.50;;;7.91;99.90
18500;BME280;9379;52.134;11.576;2022-12-20T00:10:48;101079.44;;;7.82;99.44
18500;BME280;9379;52.134;11.576;2022-12-20T00:13:15;101087.91;;;8.12;98.97
18500;BME280;9379;52.134;11.576;2022-12-20T00:15:42;101105.25;;;8.42;97.73
18500;BME280;9379;52.134;11.576;2022-12-20T00:18:09;101083.53;;;7.99;98.60
18500;BME280;9379;52.134;11.576;2022-12-20T00:20:37;101084.22;;;7.89;100.00
18500;BME280;9379;52.134;11.576;2022-12-20T00:23:04;101074.13;;;7.95;98.18
18500;BME280;9379;52.134;11.576;2022-12-20T00:25:31;101071.72;;;7.79;100.00
18500;BME280;9379;52.134;11.576;2022-12-20T00:27:57;101076.03;;;8.05;98.78
18500;BME280;9379;52.134;11.576;2022-12-20T00:30:25;101094.97;;;8.25;98.69
18500;BME280;9379;52.134;11.576;2022-12-20T00:32:52;101061.75;;;7.70;99.78
18500;BME280;9379;52.134;11.576;2022-12-20T00:35:18;101080.06;;;7.85;99.08
18500;BME280;9379;52.134;11.576;2022-12-20T00:37:47;101068.63;;;7.98;99.56
18500;BME280;9379;52.134;11.576;2022-12-20T00:40:13;101063.44;;;7.96;98.73
18500;BME280;9379;52.134;11.576;2022-12-20T00:42:40;101081.22;;;7.81;100.00
18500;BME280;9379;52.134;11.576;2022-12-20T00:45:08;101063.56;;;7.69;100.00
18500;BME280;9379;52.134;11.576;2022-12-20T00:47:35;101064.72;;;7.90;100.00
18500;BME280;9379;52.134;11.576;2022-12-20T00:50:02;101066.38;;;8.17;99.04
18500;BME280;9379;52.134;11.576;2022-12-20T00:52:29;101067.34;;;8.16;99.41
18500;BME280;9379;52.134;11.576;2022-12-20T00:54:57;101056.00;;;8.27;98.62
18500;BME280;9379;52.134;11.576;2022-12-20T00:57:24;101050.53;;;7.92;99.83
18500;BME280;9379;52.134;11.576;2022-12-20T00:59:51;101067.16;;;7.81;100.00
18500;BME280;9379;52.134;11.576;2022-12-20T01:02:18;101046.50;;;7.86;100.00
18500;BME280;9379;52.134;11.576;2022-12-20T01:04:44;101076.34;;;8.13;100.00
18500;BME280;9379;52.134;11.576;2022-12-20T01:07:11;101060.03;;;8.07;99.23
18500;BME280;9379;52.134;11.576;2022-12-20T01:09:38;101065.00;;;7.99;99.53
18500;BME280;9379;52.134;11.576;2022-12-20T01:12:07;101056.69;;;7.79;99.79
18500;BME280;9379;52.134;11.576;2022-12-20T01:14:34;101057.81;;;7.63;100.00
18500;BME280;9379;52.134;11.576;2022-12-20T01:17:00;101084.59;;;7.96;99.62
18500;BME280;9379;52.134;11.576;2022-12-20T01:19:27;101093.16;;;7.61;100.00
18500;BME280;9379;52.134;11.576;2022-12-20T01:21:54;101081.44;;;7.53;100.00
18500;BME280;9379;52.134;11.576;2022-12-20T01:24:21;101067.03;;;7.57;100.00
18500;BME280;9379;52.134;11.576;2022-12-20T01:26:48;101072.84;;;7.75;99.55
18500;BME280;9379;52.134;11.576;2022-12-20T01:29:17;101084.22;;;7.89;99.02
18500;BME280;9379;52.134;11.576;2022-12-20T01:31:43;101099.34;;;7.87;100.00
18500;BME280;9379;52.134;11.576;2022-12-20T01:34:10;101075.94;;;7.81;100.00
18500;BME280;9379;52.134;11.576;2022-12-20T01:36:38;101085.44;;;7.97;99.95
18500;BME280;9379;52.134;11.576;2022-12-20T01:39:06;101069.59;;;7.71;100.00
18500;BME280;9379;52.134;11.576;2022-12-20T01:41:35;101071.72;;;7.66;100.00
18500;BME280;9379;52.134;11.576;2022-12-20T01:44:03;101084.31;;;8.01;99.77
18500;BME280;9379;52.134;11.576;2022-12-20T01:46:33;101044.09;;;7.70;99.22
18500;BME280;9379;52.134;11.576;2022-12-20T01:49:04;101063.22;;;7.61;100.00
18500;BME280;9379;52.134;11.576;2022-12-20T01:51:34;101066.19;;;7.69;100.00
18500;BME280;9379;52.134;11.576;2022-12-20T01:54:05;101061.97;;;7.54;100.00
18500;BME280;9379;52.134;11.576;2022-12-20T01:56:33;101069.47;;;7.60;100.00
18500;BME280;9379;52.134;11.576;2022-12-20T01:59:00;101054.34;;;7.49;100.00
18500;BME280;9379;52.134;11.576;2022-12-20T02:01:27;101037.38;;;7.26;100.00
18500;BME280;9379;52.134;11.576;2022-12-20T02:03:56;101034.69;;;7.66;100.00
18500;BME280;9379;52.134;11.576;2022-12-20T02:06:25;101061.25;;;7.65;100.00
18500;BME280;9379;52.134;11.576;2022-12-20T02:08:54;101042.16;;;7.21;100.00
18500;BME280;9379;52.134;11.576;2022-12-20T02:14:26;101035.66;;;7.13;100.00
18500;BME280;9379;52.134;11.576;2022-12-20T02:17:01;101020.91;;;7.36;100.00
18500;BME280;9379;52.134;11.576;2022-12-20T02:22:43;101052.63;;;7.36;100.00
18500;BME280;9379;52.134;11.576;2022-12-20T02:25:31;101061.78;;;7.17;100.00
18500;BME280;9379;52.134;11.576;2022-12-20T02:28:14;101061.56;;;7.08;100.00
18500;BME280;9379;52.134;11.576;2022-12-20T02:30:51;101051.97;;;7.19;100.00
18500;BME280;9379;52.134;11.576;2022-12-20T02:33:20;101057.44;;;7.16;100.00
18500;BME280;9379;52.134;11.576;2022-12-20T02:35:50;101059.06;;;6.92;100.00
18500;BME280;9379;52.134;11.576;2022-12-20T02:38:26;101049.66;;;7.27;100.00
18500;BME280;9379;52.134;11.576;2022-12-20T02:40:56;101042.84;;;7.11;100.00
18500;BME280;9379;52.134;11.576;2022-12-20T02:43:26;101046.59;;;7.21;100.00
18500;BME280;9379;52.134;11.576;2022-12-20T02:46:12;101050.28;;;7.18;100.00
18500;BME280;9379;52.134;11.576;2022-12-20T02:48:41;101020.50;;;6.89;100.00
18500;BME280;9379;52.134;11.576;2022-12-20T02:51:09;101039.84;;;6.90;100.00
18500;BME280;9379;52.134;11.576;2022-12-20T02:53:38;101043.56;;;7.00;100.00
18500;BME280;9379;52.134;11.576;2022-12-20T02:56:09;101015.72;;;7.21;100.00
18500;BME280;9379;52.134;11.576;2022-12-20T02:58:43;101037.28;;;7.41;100.00
18500;BME280;9379;52.134;11.576;2022-12-20T03:01:18;101033.84;;;7.53;100.00
18500;BME280;9379;52.134;11.576;2022-12-20T03:03:47;101021.84;;;7.60;100.00
18500;BME280;9379;52.134;11.576;2022-12-20T03:06:15;101022.81;;;7.46;100.00
18500;BME280;9379;52.134;11.576;2022-12-20T03:08:42;101021.09;;;7.20;100.00
18500;BME280;9379;52.134;11.576;2022-12-20T03:11:09;100996.00;;;7.00;100.00
18500;BME280;9379;52.134;11.576;2022-12-20T03:13:36;101022.91;;;7.32;100.00
18500;BME280;9379;52.134;11.576;2022-12-20T03:16:03;101012.69;;;7.00;100.00
18500;BME280;9379;52.134;11.576;2022-12-20T03:18:31;101012.44;;;7.18;100.00
18500;BME280;9379;52.134;11.576;2022-12-20T03:20:58;101016.63;;;7.08;100.00
18500;BME280;9379;52.134;11.576;2022-12-20T03:23:25;101008.97;;;7.30;100.00
18500;BME280;9379;52.134;11.576;2022-12-20T03:25:52;101023.19;;;7.15;100.00
18500;BME280;9379;52.134;11.576;2022-12-20T03:28:19;101000.06;;;7.18;100.00
18500;BME280;9379;52.134;11.576;2022-12-20T03:30:47;101024.75;;;7.05;100.00
18500;BME280;9379;52.134;11.576;2022-12-20T03:33:14;101013.72;;;7.50;100.00
18500;BME280;9379;52.134;11.576;2022-12-20T03:35:42;101019.00;;;7.38;100.00
18500;BME280;9379;52.134;11.576;2022-12-20T03:38:09;101022.50;;;7.76;100.00
18500;BME280;9379;52.134;11.576;2022-12-20T03:40:36;101026.59;;;7.93;100.00
18500;BME280;9379;52.134;11.576;2022-12-20T03:43:03;101025.56;;;7.57;100.00
18500;BME280;9379;52.134;11.576;2022-12-20T03:45:30;101039.22;;;7.64;100.00
18500;BME280;9379;52.134;11.576;2022-12-20T03:47:56;101025.78;;;7.54;100.00
18500;BME280;9379;52.134;11.576;2022-12-20T03:50:23;101003.22;;;7.49;100.00
18500;BME280;9379;52.134;11.576;2022-12-20T03:52:51;101010.31;;;7.61;100.00
18500;BME280;9379;52.134;11.576;2022-12-20T03:55:18;101018.91;;;7.77;100.00
18500;BME280;9379;52.134;11.576;2022-12-20T03:57:45;101006.91;;;7.84;100.00
18500;BME280;9379;52.134;11.576;2022-12-20T04:00:13;100980.03;;;7.90;100.00
18500;BME280;9379;52.134;11.576;2022-12-20T04:02:40;100998.75;;;8.00;100.00
18500;BME280;9379;52.134;11.576;2022-12-20T04:05:07;100990.72;;;8.02;100.00
18500;BME280;9379;52.134;11.576;2022-12-20T04:07:34;100975.41;;;8.18;100.00
18500;BME280;9379;52.134;11.576;2022-12-20T04:10:03;100986.41;;;8.25;100.00
18500;BME280;9379;52.134;11.576;2022-12-20T04:12:30;100965.41;;;7.98;100.00
18500;BME280;9379;52.134;11.576;2022-12-20T04:14:57;100999.19;;;8.31;100.00
18500;BME280;9379;52.134;11.576;2022-12-20T04:17:38;101001.06;;;8.05;100.00
18500;BME280;9379;52.134;11.576;2022-12-20T04:20:12;100993.81;;;8.19;100.00
18500;BME280;9379;52.134;11.576;2022-12-20T04:22:44;100976.75;;;8.00;100.00
18500;BME280;9379;52.134;11.576;2022-12-20T04:25:12;100977.03;;;8.08;100.00
18500;BME280;9379;52.134;11.576;2022-12-20T04:27:39;100989.16;;;8.36;100.00
18500;BME280;9379;52.134;11.576;2022-12-20T04:30:08;100972.63;;;8.19;100.00
18500;BME280;9379;52.134;11.576;2022-12-20T04:32:35;100996.41;;;8.45;100.00
18500;BME280;9379;52.134;11.576;2022-12-20T04:35:04;100996.59;;;8.55;100.00
18500;BME280;9379;52.134;11.576;2022-12-20T04:37:31;100965.75;;;8.54;100.00
18500;BME280;9379;52.134;11.576;2022-12-20T04:39:58;100942.56;;;8.57;100.00
18500;BME280;9379;52.134;11.576;2022-12-20T04:42:26;100961.34;;;8.65;100.00
18500;BME280;9379;52.134;11.576;2022-12-20T04:44:53;100949.31;;;8.37;100.00
18500;BME280;9379;52.134;11.576;2022-12-20T04:47:20;100970.44;;;8.74;100.00
18500;BME280;9379;52.134;11.576;2022-12-20T04:49:47;100965.75;;;8.54;100.00
18500;BME280;9379;52.134;11.576;2022-12-20T04:52:14;100974.38;;;8.44;100.00
18500;BME280;9379;52.134;11.576;2022-12-20T04:54:59;100984.47;;;8.39;100.00
18500;BME280;9379;52.134;11.576;2022-12-20T04:57:27;100984.88;;;8.33;100.00
18500;BME280;9379;52.134;11.576;2022-12-20T04:59:55;100981.72;;;8.28;100.00
18500;BME280;9379;52.134;11.576;2022-12-20T05:02:22;100974.13;;;8.36;100.00
18500;BME280;9379;52.134;11.576;2022-12-20T05:04:48;100957.28;;;8.25;100.00
18500;BME280;9379;52.134;11.576;2022-12-20T05:07:15;100979.84;;;8.17;100.00
18500;BME280;9379;52.134;11.576;2022-12-20T05:09:42;100967.50;;;8.42;100.00
18500;BME280;9379;52.134;11.576;2022-12-20T05:12:09;100971.72;;;8.08;100.00
18500;BME280;9379;52.134;11.576;2022-12-20T05:14:37;100953.91;;;8.23;100.00
18500;BME280;9379;52.134;11.576;2022-12-20T05:17:04;100947.06;;;8.07;100.00
18500;BME280;9379;52.134;11.576;2022-12-20T05:19:30;100959.41;;;8.19;100.00
18500;BME280;9379;52.134;11.576;2022-12-20T05:21:57;100965.13;;;8.26;100.00
18500;BME280;9379;52.134;11.576;2022-12-20T05:24:41;100958.09;;;8.01;100.00
18500;BME280;9379;52.134;11.576;2022-12-20T05:27:25;100958.22;;;8.00;100.00
18500;BME280;9379;52.134;11.576;2022-12-20T05:29:53;100964.75;;;8.07;100.00
18500;BME280;9379;52.134;11.576;2022-12-20T05:32:20;100930.00;;;8.11;100.00
18500;BME280;9379;52.134;11.576;2022-12-20T05:34:47;100957.66;;;8.07;100.00
18500;BME280;9379;52.134;11.576;2022-12-20T05:37:14;100943.97;;;8.13;100.00
18500;BME280;9379;52.134;11.576;2022-12-20T05:39:40;100950.56;;;8.08;100.00
18500;BME280;9379;52.134;11.576;2022-12-20T05:42:07;100955.66;;;8.11;100.00
18500;BME280;9379;52.134;11.576;2022-12-20T05:44:34;100966.22;;;8.11;100.00
18500;BME280;9379;52.134;11.576;2022-12-20T05:47:02;100944.13;;;8.36;100.00
18500;BME280;9379;52.134;11.576;2022-12-20T05:49:29;100956.59;;;8.46;100.00
18500;BME280;9379;52.134;11.576;2022-12-20T05:51:56;100958.91;;;8.51;100.00
18500;BME280;9379;52.134;11.576;2022-12-20T05:54:23;100971.00;;;8.66;100.00
18500;BME280;9379;52.134;11.576;2022-12-20T05:56:50;100951.50;;;8.43;100.00
18500;BME280;9379;52.134;11.576;2022-12-20T05:59:17;100966.44;;;8.68;100.00
18500;BME280;9379;52.134;11.576;2022-12-20T06:01:44;100964.41;;;8.72;100.00
18500;BME280;9379;52.134;11.576;2022-12-20T06:04:12;100970.25;;;8.88;100.00
18500;BME280;9379;52.134;11.576;2022-12-20T06:06:39;100963.78;;;8.92;100.00
18500;BME280;9379;52.134;11.576;2022-12-20T06:09:05;100977.22;;;8.89;100.00
18500;BME280;9379;52.134;11.576;2022-12-20T06:11:32;100971.88;;;8.78;100.00
18500;BME280;9379;52.134;11.576;2022-12-20T06:13:59;100976.13;;;8.81;100.00
18500;BME280;9379;52.134;11.576;2022-12-20T06:16:26;100980.25;;;8.85;100.00
18500;BME280;9379;52.134;11.576;2022-12-20T06:18:53;100981.03;;;9.09;100.00
18500;BME280;9379;52.134;11.576;2022-12-20T06:21:21;100983.03;;;8.94;100.00
18500;BME280;9379;52.134;11.576;2022-12-20T06:23:48;100981.31;;;8.82;100.00
18500;BME280;9379;52.134;11.576;2022-12-20T06:26:15;100980.69;;;8.55;100.00
18500;BME280;9379;52.134;11.576;2022-12-20T06:28:43;100988.97;;;8.74;100.00
18500;BME280;9379;52.134;11.576;2022-12-20T06:31:10;100988.63;;;8.55;100.00
18500;BME280;9379;52.134;11.576;2022-12-20T06:33:37;100993.16;;;8.65;100.00
18500;BME280;9379;52.134;11.576;2022-12-20T06:36:04;100985.38;;;8.75;100.00
18500;BME280;9379;52.134;11.576;2022-12-20T06:38:33;100979.28;;;8.62;100.00
18500;BME280;9379;52.134;11.576;2022-12-20T06:40:59;100990.38;;;8.67;100.00
18500;BME280;9379;52.134;11.576;2022-12-20T06:43:27;100993.84;;;8.80;100.00
18500;BME280;9379;52.134;11.576;2022-12-20T06:45:54;100983.66;;;8.98;100.00
18500;BME280;9379;52.134;11.576;2022-12-20T06:48:20;100987.16;;;8.98;100.00
18500;BME280;9379;52.134;11.576;2022-12-20T06:50:47;100977.53;;;8.73;100.00
18500;BME280;9379;52.134;11.576;2022-12-20T06:53:14;100986.16;;;8.88;100.00
18500;BME280;9379;52.134;11.576;2022-12-20T06:55:42;100973.56;;;8.79;100.00
18500;BME280;9379;52.134;11.576;2022-12-20T06:58:09;100992.06;;;8.68;100.00
18500;BME280;9379;52.134;11.576;2022-12-20T07:00:36;100987.19;;;8.51;100.00
18500;BME280;9379;52.134;11.576;2022-12-20T07:03:03;100987.00;;;8.41;100.00
18500;BME280;9379;52.134;11.576;2022-12-20T07:05:30;100980.13;;;8.62;100.00
18500;BME280;9379;52.134;11.576;2022-12-20T07:07:57;100985.91;;;8.80;100.00
18500;BME280;9379;52.134;11.576;2022-12-20T07:10:23;100979.63;;;8.81;100.00
18500;BME280;9379;52.134;11.576;2022-12-20T07:12:52;100967.97;;;8.60;100.00
18500;BME280;9379;52.134;11.576;2022-12-20T07:15:19;100976.03;;;8.58;100.00
18500;BME280;9379;52.134;11.576;2022-12-20T07:17:47;100986.84;;;8.55;100.00
18500;BME280;9379;52.134;11.576;2022-12-20T07:20:14;100979.91;;;8.65;100.00
18500;BME280;9379;52.134;11.576;2022-12-20T07:22:42;100985.94;;;8.67;100.00
18500;BME280;9379;52.134;11.576;2022-12-20T07:25:09;100989.53;;;8.66;100.00
18500;BME280;9379;52.134;11.576;2022-12-20T07:27:36;100993.78;;;8.93;100.00
18500;BME280;9379;52.134;11.576;2022-12-20T07:30:06;100988.16;;;9.09;100.00
18500;BME280;9379;52.134;11.576;2022-12-20T07:32:33;100988.94;;;8.98;100.00
18500;BME280;9379;52.134;11.576;2022-12-20T07:35:00;100991.41;;;8.77;100.00
18500;BME280;9379;52.134;11.576;2022-12-20T07:37:27;100994.25;;;8.98;100.00
18500;BME280;9379;52.134;11.576;2022-12-20T07:39:54;101000.91;;;9.03;100.00
18500;BME280;9379;52.134;11.576;2022-12-20T07:42:21;100999.03;;;8.82;100.00
18500;BME280;9379;52.134;11.576;2022-12-20T07:44:48;101002.16;;;8.39;100.00
18500;BME280;9379;52.134;11.576;2022-12-20T07:47:16;100997.72;;;8.39;100.00
18500;BME280;9379;52.134;11.576;2022-12-20T07:49:43;100992.59;;;8.12;100.00
18500;BME280;9379;52.134;11.576;2022-12-20T07:52:12;100995.19;;;8.25;100.00
18500;BME280;9379;52.134;11.576;2022-12-20T07:54:42;100982.63;;;8.16;100.00
18500;BME280;9379;52.134;11.576;2022-12-20T07:57:14;100984.59;;;8.25;100.00
18500;BME280;9379;52.134;11.576;2022-12-20T07:59:47;100981.13;;;8.25;100.00
18500;BME280;9379;52.134;11.576;2022-12-20T08:02:22;100976.09;;;8.33;100.00
18500;BME280;9379;52.134;11.576;2022-12-20T08:04:51;100972.69;;;8.43;100.00
18500;BME280;9379;52.134;11.576;2022-12-20T08:07:20;100956.50;;;8.11;100.00
18500;BME280;9379;52.134;11.576;2022-12-20T08:09:46;100976.28;;;8.66;100.00
18500;BME280;9379;52.134;11.576;2022-12-20T08:12:15;100969.81;;;8.70;100.00
18500;BME280;9379;52.134;11.576;2022-12-20T08:14:43;100970.34;;;8.52;100.00
18500;BME280;9379;52.134;11.576;2022-12-20T08:17:10;100949.53;;;8.22;100.00
18500;BME280;9379;52.134;11.576;2022-12-20T08:19:38;100971.06;;;8.54;100.00
18500;BME280;9379;52.134;11.576;2022-12-20T08:22:05;100976.34;;;8.54;100.00
18500;BME280;9379;52.134;11.576;2022-12-20T08:24:32;100976.25;;;8.55;100.00
18500;BME280;9379;52.134;11.576;2022-12-20T08:26:59;100965.28;;;8.48;100.00
18500;BME280;9379;52.134;11.576;2022-12-20T08:29:26;100978.75;;;8.45;100.00
18500;BME280;9379;52.134;11.576;2022-12-20T08:31:53;100994.47;;;8.36;100.00
18500;BME280;9379;52.134;11.576;2022-12-20T08:34:20;100989.28;;;8.58;100.00
18500;BME280;9379;52.134;11.576;2022-12-20T08:36:48;100982.97;;;8.48;100.00
18500;BME280;9379;52.134;11.576;2022-12-20T08:39:15;100987.88;;;8.29;100.00
18500;BME280;9379;52.134;11.576;2022-12-20T08:41:41;100990.19;;;8.46;100.00
18500;BME280;9379;52.134;11.576;2022-12-20T08:44:08;100988.59;;;8.43;100.00
18500;BME280;9379;52.134;11.576;2022-12-20T08:46:35;100992.53;;;8.62;100.00
18500;BME280;9379;52.134;11.576;2022-12-20T08:49:02;100989.84;;;8.51;100.00
18500;BME280;9379;52.134;11.576;2022-12-20T08:51:29;100988.44;;;8.58;100.00
18500;BME280;9379;52.134;11.576;2022-12-20T08:53:57;100994.97;;;8.65;100.00
18500;BME280;9379;52.134;11.576;2022-12-20T08:56:24;101008.66;;;8.83;100.00
18500;BME280;9379;52.134;11.576;2022-12-20T08:58:51;101001.31;;;8.86;100.00
18500;BME280;9379;52.134;11.576;2022-12-20T09:01:19;101002.84;;;8.54;100.00
18500;BME280;9379;52.134;11.576;2022-12-20T09:03:47;100990.19;;;8.70;100.00
18500;BME280;9379;52.134;11.576;2022-12-20T09:06:17;100988.47;;;8.32;100.00
18500;BME280;9379;52.134;11.576;2022-12-20T09:08:44;100994.34;;;8.25;100.00
18500;BME280;9379;52.134;11.576;2022-12-20T09:11:14;100988.47;;;8.32;100.00
18500;BME280;9379;52.134;11.576;2022-12-20T09:13:43;100990.75;;;8.26;100.00
18500;BME280;9379;52.134;11.576;2022-12-20T09:16:11;100984.75;;;8.11;100.00
18500;BME280;9379;52.134;11.576;2022-12-20T09:18:38;100964.56;;;7.97;100.00
18500;BME280;9379;52.134;11.576;2022-12-20T09:21:06;100978.81;;;8.07;100.00
18500;BME280;9379;52.134;11.576;2022-12-20T09:23:34;100986.88;;;8.06;100.00
18500;BME280;9379;52.134;11.576;2022-12-20T09:26:02;100994.31;;;8.01;100.00
18500;BME280;9379;52.134;11.576;2022-12-20T09:28:30;100981.88;;;8.14;100.00
18500;BME280;9379;52.134;11.576;2022-12-20T09:30:57;100974.91;;;8.13;100.00
18500;BME280;9379;52.134;11.576;2022-12-20T09:33:24;100967.81;;;8.13;100.00
18500;BME280;9379;52.134;11.576;2022-12-20T09:35:51;100965.47;;;8.09;100.00
18500;BME280;9379;52.134;11.576;2022-12-20T09:38:18;100963.94;;;7.94;100.00
18500;BME280;9379;52.134;11.576;2022-12-20T09:40:46;100949.75;;;7.95;100.00
18500;BME280;9379;52.134;11.576;2022-12-20T09:43:15;100959.38;;;7.96;100.00
18500;BME280;9379;52.134;11.576;2022-12-20T09:45:45;100961.06;;;7.97;100.00
18500;BME280;9379;52.134;11.576;2022-12-20T09:48:17;100962.91;;;7.83;100.00
18500;BME280;9379;52.134;11.576;2022-12-20T09:50:53;100972.41;;;7.86;100.00
18500;BME280;9379;52.134;11.576;2022-12-20T09:53:31;100971.13;;;7.92;100.00
18500;BME280;9379;52.134;11.576;2022-12-20T09:56:05;100962.91;;;7.83;100.00
18500;BME280;9379;52.134;11.576;2022-12-20T09:58:42;100964.47;;;7.86;100.00
18500;BME280;9379;52.134;11.576;2022-12-20T10:01:18;100952.84;;;7.88;100.00
18500;BME280;9379;52.134;11.576;2022-12-20T10:03:45;100945.75;;;7.89;100.00
18500;BME280;9379;52.134;11.576;2022-12-20T10:06:17;100938.53;;;7.91;100.00
18500;BME280;9379;52.134;11.576;2022-12-20T10:08:54;100937.44;;;8.06;100.00
18500;BME280;9379;52.134;11.576;2022-12-20T10:11:32;100933.97;;;7.93;100.00
18500;BME280;9379;52.134;11.576;2022-12-20T10:14:08;100930.78;;;8.01;100.00
18500;BME280;9379;52.134;11.576;2022-12-20T10:16:44;100925.44;;;7.89;100.00
18500;BME280;9379;52.134;11.576;2022-12-20T10:19:22;100925.53;;;7.75;100.00
18500;BME280;9379;52.134;11.576;2022-12-20T10:21:54;100915.22;;;7.96;100.00
18500;BME280;9379;52.134;11.576;2022-12-20T10:24:28;100915.44;;;7.93;100.00
18500;BME280;9379;52.134;11.576;2022-12-20T10:26:56;100915.03;;;7.99;100.00
18500;BME280;9379;52.134;11.576;2022-12-20T10:29:24;100893.44;;;7.93;100.00
18500;BME280;9379;52.134;11.576;2022-12-20T10:31:53;100901.16;;;8.19;100.00
18500;BME280;9379;52.134;11.576;2022-12-20T10:34:24;100919.44;;;8.11;100.00
18500;BME280;9379;52.134;11.576;2022-12-20T10:37:09;100919.00;;;8.05;100.00
18500;BME280;9379;52.134;11.576;2022-12-20T10:39:40;100907.59;;;8.28;100.00
18500;BME280;9379;52.134;11.576;2022-12-20T10:42:23;100897.47;;;8.22;100.00
18500;BME280;9379;52.134;11.576;2022-12-20T10:44:50;100911.06;;;8.05;100.00
18500;BME280;9379;52.134;11.576;2022-12-20T10:47:33;100907.94;;;8.00;100.00
18500;BME280;9379;52.134;11.576;2022-12-20T10:50:12;100899.41;;;8.31;100.00
18500;BME280;9379;52.134;11.576;2022-12-20T10:52:40;100886.63;;;8.25;100.00
18500;BME280;9379;52.134;11.576;2022-12-20T10:55:31;100877.50;;;8.05;100.00
18500;BME280;9379;52.134;11.576;2022-12-20T10:58:02;100866.31;;;8.26;100.00
18500;BME280;9379;52.134;11.576;2022-12-20T11:00:30;100881.91;;;8.17;100.00
18500;BME280;9379;52.134;11.576;2022-12-20T11:03:11;100881.78;;;7.95;100.00
18500;BME280;9379;52.134;11.576;2022-12-20T11:05:38;100890.13;;;8.02;100.00
18500;BME280;9379;52.134;11.576;2022-12-20T11:08:14;100891.34;;;8.09;100.00
18500;BME280;9379;52.134;11.576;2022-12-20T11:10:41;100876.06;;;8.01;100.00
18500;BME280;9379;52.134;11.576;2022-12-20T11:13:19;100859.81;;;8.06;100.00
18500;BME280;9379;52.134;11.576;2022-12-20T11:15:48;100852.84;;;8.05;100.00
18500;BME280;9379;52.134;11.576;2022-12-20T11:18:22;100867.38;;;8.23;100.00
18500;BME280;9379;52.134;11.576;2022-12-20T11:20:59;100848.56;;;8.15;100.00
18500;BME280;9379;52.134;11.576;2022-12-20T11:23:35;100846.03;;;8.13;100.00
18500;BME280;9379;52.134;11.576;2022-12-20T11:26:26;100842.53;;;8.37;100.00
18500;BME280;9379;52.134;11.576;2022-12-20T11:29:05;100831.00;;;8.14;100.00
18500;BME280;9379;52.134;11.576;2022-12-20T11:31:42;100833.91;;;7.98;100.00
18500;BME280;9379;52.134;11.576;2022-12-20T11:34:24;100834.25;;;7.94;100.00
18500;BME280;9379;52.134;11.576;2022-12-20T11:37:08;100817.69;;;8.27;100.00
18500;BME280;9379;52.134;11.576;2022-12-20T11:39:50;100823.78;;;8.16;100.00
18500;BME280;9379;52.134;11.576;2022-12-20T11:42:28;100818.16;;;8.32;100.00
18500;BME280;9379;52.134;11.576;2022-12-20T11:45:03;100822.75;;;8.30;100.00
18500;BME280;9379;52.134;11.576;2022-12-20T11:47:49;100824.41;;;8.31;100.00
18500;BME280;9379;52.134;11.576;2022-12-20T11:50:35;100825.06;;;8.81;100.00
18500;BME280;9379;52.134;11.576;2022-12-20T11:53:07;100834.78;;;8.58;100.00
18500;BME280;9379;52.134;11.576;2022-12-20T11:55:39;100831.66;;;8.29;100.00
18500;BME280;9379;52.134;11.576;2022-12-20T11:58:13;100828.75;;;8.32;100.00
18500;BME280;9379;52.134;11.576;2022-12-20T12:00:46;100832.56;;;8.16;100.00
18500;BME280;9379;52.134;11.576;2022-12-20T12:03:20;100828.66;;;8.09;100.00
18500;BME280;9379;52.134;11.576;2022-12-20T12:05:52;100817.16;;;8.22;100.00
18500;BME280;9379;52.134;11.576;2022-12-20T12:08:23;100814.94;;;8.04;100.00
18500;BME280;9379;52.134;11.576;2022-12-20T12:10:56;100805.47;;;8.13;100.00
18500;BME280;9379;52.134;11.576;2022-12-20T12:13:26;100794.94;;;8.24;100.00
18500;BME280;9379;52.134;11.576;2022-12-20T12:15:57;100789.13;;;8.19;100.00
18500;BME280;9379;52.134;11.576;2022-12-20T12:18:28;100798.41;;;8.60;100.00
18500;BME280;9379;52.134;11.576;2022-12-20T12:21:01;100794.81;;;8.61;100.00
18500;BME280;9379;52.134;11.576;2022-12-20T12:23:32;100786.91;;;8.94;100.00
18500;BME280;9379;52.134;11.576;2022-12-20T12:26:08;100779.91;;;8.93;100.00
18500;BME280;9379;52.134;11.576;2022-12-20T12:28:36;100776.69;;;8.43;100.00
18500;BME280;9379;52.134;11.576;2022-12-20T12:31:06;100779.63;;;8.52;100.00
18500;BME280;9379;52.134;11.576;2022-12-20T12:33:40;100776.81;;;8.42;100.00
18500;BME280;9379;52.134;11.576;2022-12-20T12:36:36;100783.34;;;8.49;100.00
18500;BME280;9379;52.134;11.576;2022-12-20T12:45:15;100769.19;;;8.95;100.00
18500;BME280;9379;52.134;11.576;2022-12-20T12:47:46;100761.81;;;8.87;100.00
18500;BME280;9379;52.134;11.576;2022-12-20T12:50:22;100754.25;;;8.94;100.00
18500;BME280;9379;52.134;11.576;2022-12-20T12:52:53;100759.03;;;9.11;100.00
18500;BME280;9379;52.134;11.576;2022-12-20T12:55:41;100758.69;;;9.04;100.00
18500;BME280;9379;52.134;11.576;2022-12-20T12:58:27;100748.94;;;8.83;100.00
18500;BME280;9379;52.134;11.576;2022-12-20T13:00:57;100752.66;;;8.91;100.00
18500;BME280;9379;52.134;11.576;2022-12-20T13:03:42;100752.91;;;8.66;100.00
18500;BME280;9379;52.134;11.576;2022-12-20T13:09:38;100750.00;;;8.46;100.00
18500;BME280;9379;52.134;11.576;2022-12-20T13:18:25;100744.78;;;8.45;100.00
18500;BME280;9379;52.134;11.576;2022-12-20T13:27:35;100731.91;;;9.19;100.00
18500;BME280;9379;52.134;11.576;2022-12-20T13:33:22;100741.19;;;9.02;100.00
18500;BME280;9379;52.134;11.576;2022-12-20T13:36:28;100742.91;;;9.03;100.00